Time;durP1;ratioP1;P1;durP2;ratioP2;P2;SDS_P1;SDS_P2;PMS_P1;PMS_P2;Temp;Humidity;BMP_temperature;BMP_pressure;BME280_temperature;BME280_humidity;BME280_pressure;Samples;Min_cycle;Max_cycle;Signal;HPM_P1;HPM_P2
2023/03/13 00:00:25;;;;;;;23.95;4.10;;;8.70;99.90;;;;;;4200700;28;20081;-82
2023/03/13 00:02:25;;;;;;;23.80;3.50;;;8.80;99.90;;;;;;4233154;28;20040;-82
2023/03/13 00:04:26;;;;;;;17.60;3.38;;;8.80;99.90;;;;;;4215407;28;20040;-82
2023/03/13 00:06:31;;;;;;;21.27;3.92;;;8.80;99.90;;;;;;4232712;28;20394;-82
2023/03/13 00:08:31;;;;;;;26.55;3.80;;;8.80;99.90;;;;;;4214726;28;20048;-82
2023/03/13 00:10:35;;;;;;;28.52;5.13;;;8.80;99.90;;;;;;4197304;28;20095;-82
2023/03/13 00:12:36;;;;;;;24.25;4.75;;;8.70;99.90;;;;;;4228538;28;20036;-82
2023/03/13 00:14:36;;;;;;;22.40;3.20;;;8.80;99.90;;;;;;4215666;28;20412;-82
2023/03/13 00:16:38;;;;;;;27.02;3.85;;;8.80;99.90;;;;;;4202089;28;20574;-82
2023/03/13 00:18:48;;;;;;;19.95;4.45;;;8.80;99.90;;;;;;4235339;28;20444;-82
2023/03/13 00:21:00;;;;;;;23.50;3.70;;;8.80;99.90;;;;;;4235491;28;20044;-83
2023/03/13 00:23:00;;;;;;;22.60;4.18;;;8.80;99.90;;;;;;4234510;28;20039;-83
2023/03/13 00:25:01;;;;;;;25.65;4.10;;;8.80;99.90;;;;;;4233894;28;20507;-83
2023/03/13 00:27:03;;;;;;;23.40;3.47;;;8.70;99.90;;;;;;4234013;28;20419;-82
2023/03/13 00:29:05;;;;;;;22.23;3.90;;;8.70;99.90;;;;;;4234256;28;20112;-82
2023/03/13 00:31:15;;;;;;;22.48;3.28;;;8.70;99.90;;;;;;4199695;28;20056;-82
2023/03/13 00:33:16;;;;;;;21.85;3.30;;;8.70;99.90;;;;;;4210763;28;20277;-82
2023/03/13 00:35:17;;;;;;;26.65;3.55;;;8.70;99.90;;;;;;4242208;28;20065;-83
2023/03/13 00:37:18;;;;;;;17.90;3.00;;;8.70;99.90;;;;;;4228666;28;20052;-83
2023/03/13 00:39:19;;;;;;;17.40;3.70;;;8.70;99.90;;;;;;4252661;28;20047;-83
2023/03/13 00:41:27;;;;;;;30.25;5.22;;;8.70;99.90;;;;;;4237150;28;20032;-83
2023/03/13 00:43:28;;;;;;;17.52;3.88;;;8.70;99.90;;;;;;4236704;28;20084;-83
2023/03/13 00:45:30;;;;;;;18.75;4.15;;;8.70;99.90;;;;;;4252833;28;20024;-84
2023/03/13 00:47:30;;;;;;;20.23;3.47;;;8.70;99.90;;;;;;4237012;28;20040;-83
2023/03/13 00:49:31;;;;;;;19.98;5.68;;;8.70;99.90;;;;;;4254523;28;20041;-83
2023/03/13 00:51:33;;;;;;;30.85;3.92;;;8.70;99.90;;;;;;4254197;28;20027;-83
2023/03/13 00:53:34;;;;;;;29.52;5.07;;;8.70;99.90;;;;;;4252311;28;20039;-83
2023/03/13 00:55:35;;;;;;;20.45;3.83;;;8.60;99.90;;;;;;4229370;28;20048;-83
2023/03/13 00:57:36;;;;;;;20.85;3.80;;;8.60;99.90;;;;;;4215744;28;20044;-83
2023/03/13 00:59:38;;;;;;;17.80;3.65;;;8.60;99.90;;;;;;4199268;28;20044;-83
2023/03/13 01:01:38;;;;;;;16.98;3.95;;;8.70;99.90;;;;;;4215200;28;20515;-83
2023/03/13 01:03:41;;;;;;;27.88;4.43;;;8.90;99.90;;;;;;4233690;28;20044;-83
2023/03/13 01:05:42;;;;;;;22.13;3.95;;;8.60;99.90;;;;;;4215903;28;20499;-83
2023/03/13 01:07:43;;;;;;;20.05;4.13;;;8.70;99.90;;;;;;4233569;28;20097;-83
2023/03/13 01:09:44;;;;;;;20.73;4.93;;;8.70;99.90;;;;;;4233261;28;20048;-83
2023/03/13 01:11:46;;;;;;;19.92;3.90;;;8.70;99.90;;;;;;4224647;28;20051;-83
2023/03/13 01:13:49;;;;;;;20.58;4.45;;;8.60;99.90;;;;;;4200211;28;20147;-82
2023/03/13 01:15:50;;;;;;;26.30;4.22;;;8.70;99.90;;;;;;4219002;28;20059;-83
2023/03/13 01:17:51;;;;;;;21.70;5.55;;;8.60;99.90;;;;;;4219581;28;20056;-83
2023/03/13 01:19:57;;;;;;;29.95;5.65;;;8.60;99.90;;;;;;4219940;28;20071;-83
2023/03/13 01:21:58;;;;;;;22.77;4.68;;;8.60;99.90;;;;;;4225910;28;20040;-83
2023/03/13 01:23:59;;;;;;;20.52;4.13;;;8.60;99.90;;;;;;4209848;28;20072;-83
2023/03/13 01:26:02;;;;;;;31.35;5.40;;;8.70;99.90;;;;;;4229369;28;20072;-83
2023/03/13 01:28:04;;;;;;;15.30;3.75;;;8.70;99.90;;;;;;4220047;28;20045;-83
2023/03/13 01:30:05;;;;;;;20.55;3.42;;;8.60;99.90;;;;;;4240403;28;20059;-83
2023/03/13 01:32:06;;;;;;;25.73;5.30;;;8.70;99.90;;;;;;4219210;28;20063;-83
2023/03/13 01:34:07;;;;;;;25.85;3.90;;;8.60;99.90;;;;;;4215520;28;20025;-83
2023/03/13 01:36:08;;;;;;;25.30;3.80;;;8.70;99.90;;;;;;4219537;28;20024;-83
2023/03/13 01:38:09;;;;;;;24.55;3.67;;;8.60;99.90;;;;;;4236860;28;20088;-83
2023/03/13 01:40:11;;;;;;;20.02;4.22;;;8.60;99.90;;;;;;4201985;28;20033;-83
2023/03/13 01:42:13;;;;;;;15.75;2.92;;;7.70;99.90;;;;;;4236037;28;20031;-83
2023/03/13 01:44:23;;;;;;;24.15;4.28;;;8.60;99.90;;;;;;4212381;28;20044;-83
2023/03/13 01:46:26;;;;;;;28.60;5.20;;;8.60;99.90;;;;;;4215549;28;20054;-83
2023/03/13 01:48:34;;;;;;;28.17;5.20;;;8.60;99.90;;;;;;4198604;28;20191;-83
2023/03/13 01:50:36;;;;;;;19.30;4.15;;;8.60;99.90;;;;;;4214164;28;20535;-83
2023/03/13 01:52:37;;;;;;;18.33;3.90;;;8.70;99.90;;;;;;4215937;28;20044;-83
2023/03/13 01:54:48;;;;;;;18.83;4.13;;;8.60;99.90;;;;;;4197753;28;20597;-83
2023/03/13 01:56:58;;;;;;;26.27;5.28;;;8.60;99.90;;;;;;4215761;28;20381;-83
2023/03/13 01:58:59;;;;;;;;;;;8.70;99.90;;;;;;4215424;28;20052;-83
2023/03/13 02:01:01;;;;;;;22.10;4.30;;;8.70;99.90;;;;;;4197066;28;20308;-82
2023/03/13 02:03:07;;;;;;;17.70;3.47;;;8.60;99.90;;;;;;4215336;28;20051;-83
2023/03/13 02:05:09;;;;;;;25.60;3.20;;;8.90;99.90;;;;;;4214945;28;20040;-83
2023/03/13 02:07:15;;;;;;;19.98;4.18;;;8.70;99.90;;;;;;4208497;28;20564;-82
2023/03/13 02:09:21;;;;;;;26.85;4.70;;;8.60;99.90;;;;;;4215186;28;20570;-82
2023/03/13 02:11:32;;;;;;;27.98;4.00;;;8.70;99.90;;;;;;4196029;28;20131;-83
2023/03/13 02:13:32;;;;;;;23.13;3.65;;;8.70;99.90;;;;;;4215133;28;20086;-82
2023/03/13 02:15:33;;;;;;;19.67;4.13;;;8.70;99.90;;;;;;4214589;28;20044;-83
2023/03/13 02:17:36;;;;;;;25.25;4.32;;;8.60;99.90;;;;;;4214423;28;20127;-83
2023/03/13 02:19:44;;;;;;;28.70;5.20;;;8.60;99.90;;;;;;4214349;28;20058;-82
2023/03/13 02:22:11;;;;;;;22.77;4.72;;;8.40;99.90;;;;;;4214579;28;20040;-83
2023/03/13 02:24:41;;;;;;;18.08;3.67;;;8.60;99.90;;;;;;4162295;28;20048;-83
2023/03/13 02:26:41;;;;;;;33.05;5.32;;;8.60;99.90;;;;;;4215643;28;20072;-82
2023/03/13 02:28:42;;;;;;;16.85;3.22;;;8.60;99.90;;;;;;4214662;28;20400;-83
2023/03/13 02:30:44;;;;;;;19.13;4.18;;;8.60;99.90;;;;;;4214604;28;20040;-83
2023/03/13 02:32:46;;;;;;;14.05;3.58;;;8.50;99.90;;;;;;4215340;28;20055;-83
2023/03/13 02:34:51;;;;;;;21.80;3.40;;;8.50;99.90;;;;;;4215016;28;20058;-83
2023/03/13 02:36:52;;;;;;;16.33;4.25;;;8.60;99.90;;;;;;4215014;28;20463;-83
2023/03/13 02:38:58;;;;;;;29.73;3.20;;;8.50;99.90;;;;;;4213995;28;20094;-83
2023/03/13 02:41:01;;;;;;;17.60;3.58;;;8.50;99.90;;;;;;4214812;28;20044;-83
2023/03/13 02:43:08;;;;;;;24.13;5.10;;;8.50;99.90;;;;;;4196512;28;20048;-83
2023/03/13 02:45:12;;;;;;;16.35;3.05;;;8.50;99.90;;;;;;4200903;28;20535;-83
2023/03/13 02:47:23;;;;;;;16.15;3.78;;;8.50;99.90;;;;;;4214685;28;20052;-83
2023/03/13 02:49:27;;;;;;;22.02;5.10;;;8.50;99.90;;;;;;4197123;28;20047;-82
2023/03/13 02:51:37;;;;;;;16.02;3.53;;;8.50;99.90;;;;;;4214915;28;20044;-82
2023/03/13 02:53:38;;;;;;;18.27;4.00;;;8.50;99.90;;;;;;4214463;28;20052;-82
2023/03/13 02:55:40;;;;;;;15.65;2.97;;;8.50;99.90;;;;;;4214487;28;20522;-81
2023/03/13 02:57:43;;;;;;;13.40;3.95;;;8.50;99.90;;;;;;4214652;28;20047;-83
2023/03/13 02:59:44;;;;;;;12.32;2.50;;;8.60;99.90;;;;;;4214534;28;20048;-82
2023/03/13 03:01:45;;;;;;;9.48;2.38;;;8.50;99.90;;;;;;4217956;28;20391;-82
2023/03/13 03:03:45;;;;;;;12.32;2.65;;;8.60;99.90;;;;;;4195943;28;20058;-82
2023/03/13 03:05:46;;;;;;;10.57;2.25;;;8.60;99.90;;;;;;4214496;28;20079;-82
2023/03/13 03:07:48;;;;;;;10.85;1.95;;;8.60;99.90;;;;;;4214253;28;20048;-82
2023/03/13 03:09:49;;;;;;;12.82;2.40;;;8.70;99.90;;;;;;4214184;28;20055;-82
2023/03/13 03:11:49;;;;;;;8.15;2.67;;;8.70;99.90;;;;;;4196056;28;20414;-82
2023/03/13 03:13:50;;;;;;;6.47;1.80;;;8.70;99.90;;;;;;4214631;28;20119;-82
2023/03/13 03:15:52;;;;;;;3.40;1.67;;;8.80;99.90;;;;;;4214235;28;20115;-82
2023/03/13 03:17:53;;;;;;;6.68;1.95;;;8.70;99.90;;;;;;4214496;28;20105;-82
2023/03/13 03:19:54;;;;;;;9.00;2.85;;;8.80;99.90;;;;;;4218509;28;20043;-82
2023/03/13 03:21:54;;;;;;;11.48;2.92;;;8.80;99.90;;;;;;4214390;28;20507;-82
2023/03/13 03:23:55;;;;;;;13.65;2.58;;;8.80;99.90;;;;;;4196856;28;20056;-82
2023/03/13 03:25:56;;;;;;;11.63;3.42;;;8.70;99.90;;;;;;4214681;28;20483;-82
2023/03/13 03:27:57;;;;;;;10.20;2.03;;;8.80;99.90;;;;;;4214621;28;20088;-82
2023/03/13 03:29:57;;;;;;;3.75;1.38;;;8.80;99.90;;;;;;4214281;28;20464;-82
2023/03/13 03:31:58;;;;;;;4.88;1.88;;;8.90;99.90;;;;;;4195864;28;20044;-82
2023/03/13 03:33:59;;;;;;;5.10;2.05;;;8.90;99.90;;;;;;4213703;28;20100;-82
2023/03/13 03:36:02;;;;;;;3.63;1.80;;;8.80;99.90;;;;;;4214147;28;20044;-82
2023/03/13 03:38:04;;;;;;;6.85;2.10;;;8.90;99.90;;;;;;4196309;28;20052;-82
2023/03/13 03:40:05;;;;;;;5.53;2.17;;;8.90;99.90;;;;;;4214660;28;20452;-82
2023/03/13 03:42:08;;;;;;;6.68;1.63;;;8.90;99.90;;;;;;4214286;28;20040;-82
2023/03/13 03:44:09;;;;;;;3.92;1.75;;;8.90;99.90;;;;;;4223205;28;20070;-82
2023/03/13 03:46:10;;;;;;;3.47;1.67;;;8.90;99.90;;;;;;4230497;28;20495;-82
2023/03/13 03:48:10;;;;;;;3.95;1.70;;;9.00;99.90;;;;;;4230766;28;20051;-82
2023/03/13 03:50:12;;;;;;;5.55;1.85;;;8.90;99.90;;;;;;4221291;28;20492;-82
2023/03/13 03:52:13;;;;;;;8.35;2.20;;;9.00;99.90;;;;;;4217546;28;20052;-82
2023/03/13 03:54:14;;;;;;;5.97;1.60;;;9.00;99.90;;;;;;4199256;28;20111;-82
2023/03/13 03:56:14;;;;;;;4.32;2.10;;;9.00;99.90;;;;;;4217108;28;20491;-82
2023/03/13 03:58:15;;;;;;;3.47;1.30;;;9.00;99.90;;;;;;4216900;28;20047;-82
2023/03/13 04:00:18;;;;;;;5.70;2.33;;;9.00;99.90;;;;;;4219255;28;20128;-82
2023/03/13 04:02:19;;;;;;;2.97;1.52;;;9.00;99.90;;;;;;4218770;28;20070;-82
2023/03/13 04:04:19;;;;;;;5.95;1.60;;;9.10;99.90;;;;;;4217398;28;20036;-82
2023/03/13 04:06:20;;;;;;;6.78;1.65;;;9.00;99.90;;;;;;4217208;28;20047;-82
2023/03/13 04:08:21;;;;;;;7.13;2.22;;;9.00;99.90;;;;;;4216467;28;20040;-82
2023/03/13 04:10:22;;;;;;;2.50;1.35;;;9.10;99.90;;;;;;4198806;28;20056;-82
2023/03/13 04:12:23;;;;;;;4.13;1.63;;;9.10;99.90;;;;;;4217031;28;20052;-82
2023/03/13 04:14:24;;;;;;;4.30;1.30;;;9.10;99.90;;;;;;4216960;28;20079;-82
2023/03/13 04:16:24;;;;;;;5.28;1.80;;;9.10;99.90;;;;;;4218160;28;20047;-82
2023/03/13 04:18:25;;;;;;;2.15;1.13;;;9.20;99.90;;;;;;4223207;28;20047;-82
2023/03/13 04:20:27;;;;;;;2.65;1.25;;;9.20;99.90;;;;;;4233477;28;20044;-82
2023/03/13 04:22:28;;;;;;;1.65;1.20;;;9.20;99.90;;;;;;4233677;28;20560;-82
2023/03/13 04:24:29;;;;;;;3.13;1.23;;;9.30;99.90;;;;;;4233848;28;20047;-82
2023/03/13 04:26:29;;;;;;;2.67;1.20;;;9.30;99.90;;;;;;4233458;28;20086;-82
2023/03/13 04:28:30;;;;;;;4.20;1.42;;;9.30;99.90;;;;;;4233271;28;20415;-82
2023/03/13 04:30:31;;;;;;;3.38;1.25;;;9.40;99.90;;;;;;4233832;28;20069;-82
2023/03/13 04:32:32;;;;;;;3.40;1.38;;;9.40;99.90;;;;;;4234049;28;20051;-82
2023/03/13 04:34:32;;;;;;;5.40;1.67;;;9.50;99.90;;;;;;4231612;28;20228;-82
2023/03/13 04:36:33;;;;;;;2.83;1.90;;;9.60;99.90;;;;;;4230106;28;20047;-82
2023/03/13 04:38:34;;;;;;;3.97;2.38;;;9.60;99.90;;;;;;4233297;28;20051;-82
2023/03/13 04:40:35;;;;;;;4.88;2.42;;;9.60;99.90;;;;;;4233489;28;20052;-82
2023/03/13 04:42:36;;;;;;;5.78;2.47;;;9.80;99.90;;;;;;4233679;28;20044;-82
2023/03/13 04:44:38;;;;;;;6.47;2.45;;;9.70;99.90;;;;;;4233226;28;20130;-83
2023/03/13 04:46:39;;;;;;;8.30;2.80;;;9.80;99.90;;;;;;4233749;28;20043;-82
2023/03/13 04:48:39;;;;;;;5.43;2.38;;;9.80;99.90;;;;;;4215126;28;20541;-82
2023/03/13 04:50:40;;;;;;;6.82;2.30;;;9.80;99.90;;;;;;4233361;28;20365;-83
2023/03/13 04:52:41;;;;;;;9.10;3.53;;;9.90;99.90;;;;;;4223541;28;20040;-82
2023/03/13 04:54:41;;;;;;;9.30;3.42;;;10.00;99.90;;;;;;4216764;28;20504;-82
2023/03/13 04:56:42;;;;;;;6.47;3.55;;;9.30;99.90;;;;;;4216699;28;20052;-82
2023/03/13 04:58:43;;;;;;;11.38;2.90;;;10.00;99.90;;;;;;4216170;28;20523;-82
2023/03/13 05:00:43;;;;;;;6.13;3.97;;;10.10;99.90;;;;;;4197496;28;20037;-82
2023/03/13 05:02:44;;;;;;;6.82;3.42;;;10.20;99.90;;;;;;4216543;28;20094;-82
2023/03/13 05:04:45;;;;;;;8.40;4.13;;;10.20;99.90;;;;;;4216181;28;20040;-83
2023/03/13 05:06:46;;;;;;;6.55;3.20;;;10.20;99.90;;;;;;4215822;28;20040;-83
2023/03/13 05:08:46;;;;;;;10.65;2.90;;;10.20;99.90;;;;;;4215812;28;20051;-83
2023/03/13 05:10:47;;;;;;;9.23;3.63;;;10.20;99.90;;;;;;4229635;28;20120;-83
2023/03/13 05:12:48;;;;;;;7.40;3.17;;;10.30;99.90;;;;;;4226679;28;20032;-83
2023/03/13 05:14:49;;;;;;;7.60;3.58;;;10.30;99.90;;;;;;4214184;28;20082;-83
2023/03/13 05:16:51;;;;;;;6.35;3.35;;;10.30;99.90;;;;;;4214582;28;20048;-82
2023/03/13 05:18:52;;;;;;;8.80;3.20;;;10.30;99.90;;;;;;4232514;28;20502;-83
2023/03/13 05:20:54;;;;;;;10.45;2.90;;;;;;;;;;4232675;28;20119;-84
2023/03/13 05:22:56;;;;;;;9.50;3.10;;;9.90;99.90;;;;;;4232737;28;20048;-83
2023/03/13 05:24:56;;;;;;;4.53;2.85;;;10.50;99.90;;;;;;4231998;28;20048;-82
2023/03/13 05:26:57;;;;;;;7.00;3.10;;;10.90;99.90;;;;;;4232282;28;20459;-82
2023/03/13 05:28:58;;;;;;;17.38;3.25;;;10.80;99.90;;;;;;4226917;28;20027;-83
2023/03/13 05:30:58;;;;;;;12.50;3.05;;;10.70;99.90;;;;;;4232082;28;20035;-83
2023/03/13 05:32:59;;;;;;;13.63;3.53;;;10.70;99.90;;;;;;4213988;28;20494;-81
2023/03/13 05:35:00;;;;;;;9.15;3.35;;;10.80;99.90;;;;;;4231969;28;20096;-81
2023/03/13 05:37:00;;;;;;;5.22;2.58;;;10.90;99.90;;;;;;4232753;28;20122;-81
2023/03/13 05:39:01;;;;;;;4.60;2.50;;;11.00;99.90;;;;;;4232813;28;20605;-81
2023/03/13 05:41:03;;;;;;;6.22;2.58;;;11.00;99.90;;;;;;4232424;28;20046;-84
2023/03/13 05:43:04;;;;;;;8.27;2.33;;;;;;;;;;4233138;28;20039;-81
2023/03/13 05:45:07;;;;;;;5.78;2.08;;;11.20;99.90;;;;;;4233112;28;20527;-82
2023/03/13 05:47:10;;;;;;;3.80;1.77;;;;;;;;;;4220970;28;20404;-83
2023/03/13 05:49:11;;;;;;;9.57;1.75;;;;;;;;;;4197628;28;20079;-82
2023/03/13 05:51:12;;;;;;;7.50;2.33;;;;;;;;;;4197830;28;20045;-82
2023/03/13 05:53:13;;;;;;;4.55;2.70;;;11.10;99.90;;;;;;4206076;28;20075;-82
2023/03/13 05:55:16;;;;;;;4.88;1.80;;;11.10;99.90;;;;;;4232385;28;20043;-83
2023/03/13 05:57:17;;;;;;;7.20;2.83;;;11.10;99.90;;;;;;4232626;28;20130;-82
2023/03/13 05:59:18;;;;;;;8.05;2.00;;;11.00;99.90;;;;;;4231828;28;20040;-83
2023/03/13 06:01:20;;;;;;;12.98;2.25;;;11.00;99.90;;;;;;4193068;28;20036;-84
2023/03/13 06:03:20;;;;;;;8.63;2.50;;;11.00;99.90;;;;;;4214974;28;20101;-83
2023/03/13 06:05:21;;;;;;;5.68;1.88;;;11.00;99.90;;;;;;4214865;28;20085;-83
2023/03/13 06:07:22;;;;;;;4.13;2.05;;;11.00;99.90;;;;;;4215155;28;20040;-84
2023/03/13 06:09:24;;;;;;;9.10;2.92;;;11.00;99.90;;;;;;4214453;28;20052;-83
2023/03/13 06:11:25;;;;;;;7.90;2.13;;;11.00;99.90;;;;;;4226148;28;20055;-83
2023/03/13 06:13:26;;;;;;;12.18;3.03;;;11.00;99.90;;;;;;4231374;28;20119;-82
2023/03/13 06:15:27;;;;;;;19.25;3.78;;;10.90;99.90;;;;;;4213071;28;20047;-82
2023/03/13 06:17:28;;;;;;;10.40;2.38;;;11.20;99.90;;;;;;4227156;28;20043;-82
2023/03/13 06:19:28;;;;;;;13.80;3.63;;;11.10;99.90;;;;;;4215078;28;20050;-82
2023/03/13 06:21:29;;;;;;;8.32;1.90;;;11.00;99.90;;;;;;4214172;28;20093;-81
2023/03/13 06:23:30;;;;;;;10.43;2.63;;;11.10;99.90;;;;;;4214587;28;20127;-81
2023/03/13 06:25:33;;;;;;;5.35;2.38;;;10.90;99.90;;;;;;4214278;28;20189;-81
2023/03/13 06:27:34;;;;;;;9.95;2.60;;;9.90;99.90;;;;;;4214409;28;20040;-81
2023/03/13 06:29:35;;;;;;;7.10;1.92;;;11.10;99.90;;;;;;4214598;28;20388;-81
2023/03/13 06:31:35;;;;;;;14.02;3.30;;;11.00;99.90;;;;;;4214145;28;20466;-81
2023/03/13 06:33:37;;;;;;;7.65;2.78;;;10.60;99.90;;;;;;4214388;28;20544;-81
2023/03/13 06:35:54;;;;;;;8.80;3.00;;;11.00;99.90;;;;;;4217985;28;20114;-82
2023/03/13 06:38:08;;;;;;;7.78;2.75;;;10.90;99.90;;;;;;4200009;28;20067;-82
2023/03/13 06:40:13;;;;;;;13.27;3.50;;;10.70;99.90;;;;;;4201216;28;20432;-82
2023/03/13 06:42:14;;;;;;;16.75;3.47;;;11.40;99.90;;;;;;4214914;28;20116;-83
2023/03/13 06:44:15;;;;;;;5.15;1.75;;;11.10;99.90;;;;;;4228311;28;20043;-83
2023/03/13 06:46:22;;;;;;;6.65;2.53;;;11.10;99.90;;;;;;4204669;28;20139;-82
2023/03/13 06:48:23;;;;;;;11.52;2.17;;;11.10;99.90;;;;;;4221564;28;20118;-82
2023/03/13 06:50:24;;;;;;;10.95;2.30;;;11.10;99.90;;;;;;4231303;28;20039;-82
2023/03/13 06:52:25;;;;;;;8.13;3.33;;;11.10;99.90;;;;;;4231478;28;20043;-83
2023/03/13 06:54:26;;;;;;;11.05;2.53;;;11.50;99.90;;;;;;4231500;28;20039;-83
2023/03/13 06:56:28;;;;;;;6.68;2.35;;;11.40;99.90;;;;;;4231429;28;20494;-83
2023/03/13 06:58:30;;;;;;;8.70;2.70;;;11.30;99.90;;;;;;4231419;28;20043;-80
2023/03/13 07:00:30;;;;;;;10.82;2.70;;;11.30;99.90;;;;;;4230795;28;20387;-82
2023/03/13 07:02:31;;;;;;;8.63;2.50;;;10.80;99.90;;;;;;4224481;28;20119;-81
2023/03/13 07:04:32;;;;;;;7.47;3.05;;;11.20;99.90;;;;;;4214185;28;20048;-82
2023/03/13 07:06:33;;;;;;;11.70;2.55;;;11.20;99.90;;;;;;4214570;28;20050;-83
2023/03/13 07:08:35;;;;;;;7.03;2.47;;;11.20;99.90;;;;;;4213779;28;20051;-82
2023/03/13 07:10:36;;;;;;;11.27;2.95;;;11.30;99.90;;;;;;4214059;28;20062;-82
2023/03/13 07:12:37;;;;;;;8.18;2.28;;;;;;;;;;4214257;28;20122;-82
2023/03/13 07:14:38;;;;;;;13.27;3.28;;;11.40;99.90;;;;;;4214316;28;20048;-82
2023/03/13 07:16:38;;;;;;;10.02;2.78;;;11.40;99.90;;;;;;4214303;28;20076;-82
2023/03/13 07:18:41;;;;;;;11.68;3.10;;;11.40;99.90;;;;;;4217923;28;20119;-82
2023/03/13 07:20:42;;;;;;;12.35;2.75;;;11.70;99.90;;;;;;4213998;28;20044;-82
2023/03/13 07:22:49;;;;;;;8.93;2.20;;;11.50;99.90;;;;;;4214173;28;20480;-83
2023/03/13 07:24:50;;;;;;;9.05;2.53;;;11.70;99.90;;;;;;4213570;28;20127;-82
2023/03/13 07:26:51;;;;;;;14.38;1.77;;;12.10;99.90;;;;;;4214486;28;20047;-82
2023/03/13 07:28:51;;;;;;;11.20;2.22;;;11.70;99.90;;;;;;4214082;28;20048;-81
2023/03/13 07:30:53;;;;;;;10.32;2.35;;;11.80;99.90;;;;;;4219654;28;20043;-81
2023/03/13 07:32:54;;;;;;;6.95;2.00;;;11.70;99.90;;;;;;4231319;28;20054;-81
2023/03/13 07:34:54;;;;;;;6.60;2.47;;;11.70;99.90;;;;;;4231337;28;20122;-83
2023/03/13 07:36:55;;;;;;;5.45;1.98;;;11.70;99.90;;;;;;4230532;28;20127;-82
2023/03/13 07:38:56;;;;;;;12.13;2.60;;;11.70;99.90;;;;;;4227590;28;20446;-85
2023/03/13 07:40:57;;;;;;;6.43;2.53;;;11.70;99.90;;;;;;4223291;28;20127;-82
2023/03/13 07:42:58;;;;;;;5.68;1.75;;;11.30;99.90;;;;;;4240194;28;20048;-83
2023/03/13 07:44:58;;;;;;;11.75;2.97;;;11.60;99.90;;;;;;4230092;28;20422;-82
2023/03/13 07:47:00;;;;;;;10.52;3.25;;;11.70;99.90;;;;;;4229408;28;20096;-82
2023/03/13 07:49:00;;;;;;;10.73;2.15;;;11.50;99.90;;;;;;4229275;28;20044;-82
2023/03/13 07:51:02;;;;;;;9.20;1.92;;;11.50;99.90;;;;;;4244510;28;20042;-83
2023/03/13 07:53:03;;;;;;;8.63;2.50;;;12.10;99.90;;;;;;4237017;28;20044;-82
2023/03/13 07:55:04;;;;;;;8.77;2.33;;;11.60;99.90;;;;;;4199515;28;20064;-83
2023/03/13 07:57:05;;;;;;;7.10;2.60;;;12.30;99.90;;;;;;4219787;28;20031;-83
2023/03/13 07:59:06;;;;;;;12.18;2.75;;;11.30;99.90;;;;;;4222223;28;20127;-82
2023/03/13 08:01:09;;;;;;;5.25;2.17;;;9.90;99.90;;;;;;4215073;28;20515;-82
2023/03/13 08:03:09;;;;;;;7.07;1.77;;;10.90;99.90;;;;;;4196871;28;20083;-83
2023/03/13 08:05:10;;;;;;;9.48;2.20;;;11.90;99.90;;;;;;4214522;28;20059;-82
2023/03/13 08:07:11;;;;;;;9.82;2.28;;;11.50;99.90;;;;;;4196987;28;20056;-82
2023/03/13 08:09:12;;;;;;;7.18;2.33;;;11.90;99.90;;;;;;4214764;28;20257;-82
2023/03/13 08:11:17;;;;;;;8.38;2.15;;;12.10;99.90;;;;;;4195555;28;20135;-82
2023/03/13 08:13:18;;;;;;;7.80;2.58;;;12.00;99.90;;;;;;4221561;28;20075;-82
2023/03/13 08:15:24;;;;;;;6.65;1.25;;;11.90;99.90;;;;;;4207822;28;20051;-83
2023/03/13 08:17:27;;;;;;;5.25;2.03;;;11.40;99.90;;;;;;4212209;28;20126;-82
2023/03/13 08:19:28;;;;;;;5.75;1.90;;;11.60;99.90;;;;;;4230361;28;20138;-83
2023/03/13 08:21:36;;;;;;;6.43;2.05;;;12.20;99.90;;;;;;4219478;28;20040;-83
2023/03/13 08:23:37;;;;;;;9.80;1.73;;;11.80;99.90;;;;;;4213695;28;20080;-83
2023/03/13 08:25:38;;;;;;;3.50;1.55;;;11.60;99.90;;;;;;4213958;28;20045;-82
2023/03/13 08:27:38;;;;;;;9.90;2.08;;;11.70;99.90;;;;;;4224366;28;20487;-84
2023/03/13 08:29:39;;;;;;;5.85;1.48;;;11.80;99.90;;;;;;4217307;28;20043;-83
2023/03/13 08:31:44;;;;;;;5.47;1.35;;;12.00;99.90;;;;;;4223344;28;20032;-83
2023/03/13 08:33:46;;;;;;;7.68;1.48;;;12.30;99.90;;;;;;4226783;28;20075;-83
2023/03/13 08:35:47;;;;;;;5.35;1.17;;;12.80;99.90;;;;;;4216563;28;20089;-83
2023/03/13 08:37:48;;;;;;;6.30;1.80;;;12.80;99.90;;;;;;4228254;28;20050;-83
2023/03/13 08:39:48;;;;;;;5.72;1.50;;;12.90;99.90;;;;;;4236157;28;20043;-84
2023/03/13 08:41:49;;;;;;;9.05;1.50;;;12.90;99.90;;;;;;4234962;28;20044;-84
2023/03/13 08:43:53;;;;;;;3.95;1.17;;;13.10;99.90;;;;;;4235221;28;20483;-83
2023/03/13 08:45:55;;;;;;;4.82;1.27;;;13.70;99.90;;;;;;4219454;28;20381;-83
2023/03/13 08:47:56;;;;;;;4.30;0.90;;;14.40;99.90;;;;;;4217506;28;20048;-84
2023/03/13 08:49:57;;;;;;;5.13;1.00;;;;;;;;;;4225753;28;20115;-85
2023/03/13 08:51:57;;;;;;;5.85;1.48;;;14.90;99.90;;;;;;4233496;28;20510;-84
2023/03/13 08:54:06;;;;;;;3.53;1.30;;;15.20;99.90;;;;;;4234737;28;20036;-84
2023/03/13 08:56:29;;;;;;;3.65;0.90;;;15.90;99.90;;;;;;4209611;28;20074;-83
2023/03/13 08:58:38;;;;;;;5.32;1.10;;;15.30;99.90;;;;;;4242408;28;20048;-84
2023/03/13 09:00:50;;;;;;;6.32;1.10;;;16.90;99.90;;;;;;4210691;28;20056;-85
2023/03/13 09:03:04;;;;;;;3.22;0.70;;;16.10;99.90;;;;;;4226864;28;20533;-84
2023/03/13 09:05:11;;;;;;;5.25;1.48;;;15.80;99.90;;;;;;4194752;28;20500;-85
2023/03/13 09:07:26;;;;;;;3.50;0.75;;;15.30;99.90;;;;;;4207024;28;20082;-85
2023/03/13 09:10:00;;;;;;;3.65;0.85;;;15.60;99.90;;;;;;4218589;28;20109;-85
2023/03/13 09:12:01;;;;;;;2.67;0.75;;;15.80;99.90;;;;;;4162631;28;20045;-85
2023/03/13 09:14:03;;;;;;;3.35;0.95;;;15.80;99.90;;;;;;4195545;28;20052;-84
2023/03/13 09:16:46;;;;;;;3.72;1.02;;;15.90;99.90;;;;;;4206666;28;20164;-84
2023/03/13 09:19:10;;;;;;;4.15;0.77;;;16.20;99.90;;;;;;4165027;28;20052;-85
2023/03/13 09:21:16;;;;;;;4.57;0.73;;;14.60;99.90;;;;;;4178638;28;20469;-86
2023/03/13 09:23:18;;;;;;;5.82;0.90;;;14.40;99.90;;;;;;4183668;28;20482;-85
2023/03/13 09:25:18;;;;;;;1.90;0.60;;;14.60;99.90;;;;;;4198988;28;20042;-85
2023/03/13 09:27:19;;;;;;;2.65;0.73;;;;;;;;;;4167052;28;20052;-87
2023/03/13 09:29:21;;;;;;;4.78;1.10;;;13.60;99.90;;;;;;4184824;28;20451;-84
2023/03/13 09:31:28;;;;;;;5.20;1.20;;;13.50;99.90;;;;;;4184962;28;20139;-84
2023/03/13 09:33:29;;;;;;;4.72;1.00;;;14.50;99.90;;;;;;4183646;28;20044;-84
2023/03/13 09:35:30;;;;;;;6.07;0.90;;;13.50;99.90;;;;;;4192869;28;20166;-85
2023/03/13 09:37:30;;;;;;;7.30;1.80;;;13.30;99.90;;;;;;4200326;28;20044;-84
2023/03/13 09:39:31;;;;;;;4.50;1.27;;;13.40;99.90;;;;;;4199374;28;20075;-83
2023/03/13 09:41:34;;;;;;;5.78;1.48;;;;;;;;;;4199856;28;20052;-84
2023/03/13 09:43:50;;;;;;;5.03;1.23;;;12.90;99.90;;;;;;4199683;28;20048;-84
2023/03/13 09:45:55;;;;;;;8.20;1.33;;;12.70;99.90;;;;;;4199564;28;20045;-83
2023/03/13 09:48:07;;;;;;;8.52;1.33;;;12.70;99.90;;;;;;4181855;28;20124;-84
2023/03/13 09:50:18;;;;;;;5.72;1.00;;;12.80;99.90;;;;;;4200342;28;20497;-84
2023/03/13 09:52:22;;;;;;;9.43;1.35;;;13.60;99.90;;;;;;4199705;28;20119;-84
2023/03/13 09:54:27;;;;;;;10.70;2.70;;;13.30;99.90;;;;;;4199552;28;20044;-84
2023/03/13 09:56:34;;;;;;;9.43;1.63;;;13.10;99.90;;;;;;4203500;28;20052;-84
2023/03/13 09:58:35;;;;;;;12.75;3.00;;;12.90;99.90;;;;;;4200291;28;20052;-84
2023/03/13 10:00:43;;;;;;;15.68;2.80;;;13.10;99.90;;;;;;4200354;28;20058;-84
2023/03/13 10:02:55;;;;;;;10.13;2.22;;;13.10;99.90;;;;;;4200304;28;20041;-83
2023/03/13 10:05:04;;;;;;;7.13;1.15;;;13.10;99.90;;;;;;4200554;28;20052;-84
2023/03/13 10:07:10;;;;;;;7.68;1.52;;;13.30;99.90;;;;;;4199743;28;20047;-83
2023/03/13 10:09:22;;;;;;;13.00;2.60;;;;;;;;;;4197986;28;20044;-84
2023/03/13 10:11:28;;;;;;;8.07;1.35;;;13.80;99.90;;;;;;4223478;28;20054;-83
2023/03/13 10:13:38;;;;;;;5.25;1.40;;;14.20;99.90;;;;;;4233828;28;20122;-83
2023/03/13 10:15:47;;;;;;;7.45;1.92;;;14.50;99.90;;;;;;4231299;28;20091;-83
2023/03/13 10:17:49;;;;;;;12.07;2.10;;;14.80;99.90;;;;;;4231995;28;20040;-83
2023/03/13 10:19:57;;;;;;;5.40;1.52;;;15.00;99.90;;;;;;4233810;28;20395;-83
2023/03/13 10:22:02;;;;;;;5.10;1.35;;;15.30;99.90;;;;;;4233673;28;20044;-83
2023/03/13 10:24:25;;;;;;;7.60;2.05;;;15.30;99.90;;;;;;4233731;28;20058;-83
2023/03/13 10:26:33;;;;;;;6.32;1.50;;;15.40;99.90;;;;;;4234014;28;20997;-83
2023/03/13 10:28:34;;;;;;;8.77;2.20;;;15.40;99.90;;;;;;4233795;28;20040;-82
2023/03/13 10:30:39;;;;;;;10.60;1.88;;;15.30;99.90;;;;;;4215789;28;20043;-82
2023/03/13 10:32:41;;;;;;;10.15;1.63;;;15.20;99.90;;;;;;4232240;28;20050;-83
2023/03/13 10:35:00;;;;;;;6.78;1.52;;;15.10;99.90;;;;;;4230001;28;20406;-82
2023/03/13 10:37:01;;;;;;;;;;;15.20;99.90;;;;;;4233364;28;20043;-83
2023/03/13 10:39:08;;;;;;;6.80;1.50;;;15.10;99.90;;;;;;4214206;28;20003;-82
2023/03/13 10:41:20;;;;;;;13.15;2.00;;;15.30;99.90;;;;;;4217310;28;20066;-84
2023/03/13 10:43:20;;;;;;;14.65;2.42;;;15.40;99.90;;;;;;4214746;28;20453;-84